createdAt,value
2023-01-13T00:01:31.906Z,96646.13
2023-01-13T00:03:37.227Z,96643.25
2023-01-13T00:05:42.190Z,96636.66
2023-01-13T00:07:49.879Z,96647.97
2023-01-13T00:09:54.850Z,96635.88
2023-01-13T00:11:59.834Z,96634.03
2023-01-13T00:14:04.739Z,96629.03
2023-01-13T00:16:13.198Z,96629.28
2023-01-13T00:18:18.168Z,96628.00
2023-01-13T00:20:23.656Z,96626.91
2023-01-13T00:22:28.635Z,96620.88
2023-01-13T00:24:36.346Z,96617.47
2023-01-13T00:26:41.246Z,96619.84
2023-01-13T00:28:46.304Z,96619.56
2023-01-13T00:30:52.082Z,96628.25
2023-01-13T00:32:57.328Z,96613.78
2023-01-13T00:35:02.245Z,96612.72
2023-01-13T00:37:08.403Z,96614.06
2023-01-13T00:39:13.374Z,96613.25
2023-01-13T00:41:23.125Z,96622.75
2023-01-13T00:43:25.978Z,96608.78
2023-01-13T00:45:31.100Z,96617.22
2023-01-13T00:47:36.086Z,96610.38
2023-01-13T00:49:41.107Z,96603.00
2023-01-13T00:51:46.001Z,96594.59
2023-01-13T00:53:53.077Z,96591.19
2023-01-13T00:56:05.155Z,96600.63
2023-01-13T00:58:12.682Z,96588.81
2023-01-13T01:00:18.275Z,96605.09
2023-01-13T01:02:23.314Z,96604.84
2023-01-13T01:04:28.288Z,96606.44
2023-01-13T01:06:33.336Z,96597.47
2023-01-13T01:08:38.868Z,96594.06
2023-01-13T01:10:43.968Z,96594.06
2023-01-13T01:12:48.927Z,96603.81
2023-01-13T01:14:56.646Z,96593.78
2023-01-13T01:17:01.622Z,96602.50
2023-01-13T01:19:06.740Z,96598.00
2023-01-13T01:21:12.730Z,96595.66
2023-01-13T01:23:17.748Z,96604.84
2023-01-13T01:25:22.713Z,96591.97
2023-01-13T01:27:27.739Z,96597.75
2023-01-13T01:29:32.819Z,96589.34
2023-01-13T01:31:40.472Z,96592.75
2023-01-13T01:33:46.663Z,96583.03
2023-01-13T01:35:51.723Z,96581.19
2023-01-13T01:37:56.677Z,96576.44
2023-01-13T01:40:01.655Z,96564.09
2023-01-13T01:42:22.170Z,96568.31
2023-01-13T01:44:57.285Z,96555.94
2023-01-13T01:47:04.960Z,96561.47
2023-01-13T01:49:15.880Z,96549.09
2023-01-13T01:51:20.846Z,96553.84
2023-01-13T01:53:29.892Z,96559.59
2023-01-13T01:55:38.643Z,96551.97
2023-01-13T01:57:49.173Z,96552.53
2023-01-13T01:59:54.252Z,96545.69
2023-01-13T02:01:59.339Z,96544.63
2023-01-13T02:04:14.453Z,96544.63
2023-01-13T02:06:19.830Z,96544.09
2023-01-13T02:08:25.100Z,96533.84
2023-01-13T02:10:32.467Z,96534.09
2023-01-13T02:12:36.035Z,96535.16
2023-01-13T02:14:42.888Z,96538.84
2023-01-13T02:16:57.512Z,96528.84
2023-01-13T02:19:17.732Z,96529.91
2023-01-13T02:21:38.543Z,96532.53
2023-01-13T02:24:19.789Z,96520.44
2023-01-13T02:26:47.035Z,96519.94
2023-01-13T02:29:22.693Z,96512.31
2023-01-13T02:31:44.993Z,96523.59
2023-01-13T02:34:07.473Z,96514.13
2023-01-13T02:36:21.437Z,96513.34
2023-01-13T02:38:32.724Z,96522.81
2023-01-13T02:40:43.633Z,96516.50
2023-01-13T02:43:14.085Z,96521.50
2023-01-13T02:45:22.902Z,96515.47
2023-01-13T02:47:33.247Z,96511.75
2023-01-13T02:49:42.287Z,96515.19
2023-01-13T02:51:48.788Z,96515.69
2023-01-13T02:53:59.747Z,96519.38
2023-01-13T02:56:07.843Z,96509.38
2023-01-13T02:58:16.936Z,96502.81
2023-01-13T03:00:23.538Z,96500.69
2023-01-13T03:02:31.221Z,96491.75
2023-01-13T03:04:55.678Z,96494.38
2023-01-13T03:07:09.999Z,96496.22
2023-01-13T03:09:22.155Z,96492.28
2023-01-13T03:11:32.764Z,96490.16
2023-01-13T03:14:10.991Z,96488.84
2023-01-13T03:16:23.851Z,96487.53
2023-01-13T03:18:43.480Z,96474.66
2023-01-13T03:20:56.216Z,96482.50
2023-01-13T03:23:10.576Z,96491.19
2023-01-13T03:25:21.043Z,96483.59
2023-01-13T03:27:31.867Z,96483.06
2023-01-13T03:29:40.473Z,96485.13
2023-01-13T03:31:50.877Z,96485.13
2023-01-13T03:34:04.043Z,96490.63
2023-01-13T03:36:13.426Z,96487.22
2023-01-13T03:38:24.956Z,96493.00
2023-01-13T03:40:34.512Z,96486.69
2023-01-13T03:43:03.104Z,96478.25
2023-01-13T03:45:12.159Z,96479.56
2023-01-13T03:47:25.344Z,96475.84
2023-01-13T03:49:39.436Z,96481.94
2023-01-13T03:51:47.884Z,96477.16
2023-01-13T03:53:58.148Z,96476.66
2023-01-13T03:56:08.648Z,96476.41
2023-01-13T03:58:19.986Z,96476.66
2023-01-13T04:00:29.540Z,96485.06
2023-01-13T04:02:43.696Z,96481.38
2023-01-13T04:04:57.735Z,96482.44
2023-01-13T04:07:11.801Z,96484.28
2023-01-13T04:09:21.818Z,96480.56
2023-01-13T04:11:33.037Z,96474.53
2023-01-13T04:13:42.300Z,96468.50
2023-01-13T04:15:49.260Z,96467.16
2023-01-13T04:17:54.553Z,96465.31
2023-01-13T04:20:01.945Z,96460.06
2023-01-13T04:22:06.861Z,96467.16
2023-01-13T04:24:12.087Z,96465.59
2023-01-13T04:26:16.976Z,96470.84
2023-01-13T04:28:22.155Z,96462.16
2023-01-13T04:30:26.995Z,96449.53
2023-01-13T04:32:31.748Z,96459.78
2023-01-13T04:34:36.684Z,96455.06
2023-01-13T04:36:45.137Z,96456.94
2023-01-13T04:38:49.960Z,96455.34
2023-01-13T04:40:54.769Z,96451.41
2023-01-13T04:42:59.605Z,96460.38
2023-01-13T04:45:04.453Z,96452.47
2023-01-13T04:47:09.256Z,96459.56
2023-01-13T04:49:14.073Z,96458.00
2023-01-13T04:51:19.128Z,96454.06
2023-01-13T04:53:26.544Z,96451.44
2023-01-13T04:55:32.628Z,96456.69
2023-01-13T04:57:37.863Z,96452.50
2023-01-13T04:59:42.740Z,96451.44
2023-01-13T05:01:47.652Z,96439.59
2023-01-13T05:03:52.720Z,96455.13
2023-01-13T05:05:57.481Z,96450.94
2023-01-13T05:08:02.322Z,96457.75
2023-01-13T05:10:10.396Z,96455.38
2023-01-13T05:12:28.385Z,96451.97
2023-01-13T05:14:45.684Z,96457.50
2023-01-13T05:17:03.575Z,96451.44
2023-01-13T05:19:08.416Z,96464.38
2023-01-13T05:21:33.422Z,96458.84
2023-01-13T05:23:50.590Z,96456.75
2023-01-13T05:25:55.497Z,96461.22
2023-01-13T05:28:02.585Z,96469.34
2023-01-13T05:30:09.068Z,96473.84
2023-01-13T05:32:13.875Z,96479.63
2023-01-13T05:34:18.860Z,96472.50
2023-01-13T05:36:23.605Z,96475.41
2023-01-13T05:38:28.486Z,96465.41
2023-01-13T05:40:45.767Z,96459.91
2023-01-13T05:43:16.139Z,96457.53
2023-01-13T05:45:21.069Z,96456.19
2023-01-13T05:47:25.823Z,96455.16
2023-01-13T05:49:30.692Z,96453.81
2023-01-13T05:51:35.586Z,96455.13
2023-01-13T05:53:40.933Z,96460.06
2023-01-13T05:55:46.428Z,96461.09
2023-01-13T05:57:53.897Z,96462.69
2023-01-13T05:59:58.655Z,96454.25
2023-01-13T06:02:03.460Z,96451.34
2023-01-13T06:04:08.563Z,96452.94
2023-01-13T06:06:13.553Z,96454.47
2023-01-13T06:08:19.184Z,96449.47
2023-01-13T06:10:24.069Z,96447.34
2023-01-13T06:12:28.859Z,96454.69
2023-01-13T06:14:40.243Z,96440.81
2023-01-13T06:16:45.703Z,96448.66
2023-01-13T06:18:50.531Z,96444.97
2023-01-13T06:20:55.354Z,96444.97
2023-01-13T06:23:01.092Z,96440.50
2023-01-13T06:25:07.063Z,96436.03
2023-01-13T06:27:12.637Z,96438.63
2023-01-13T06:29:17.779Z,96442.06
2023-01-13T06:31:25.688Z,96442.06
2023-01-13T06:33:35.319Z,96439.16
2023-01-13T06:35:44.485Z,96433.91
2023-01-13T06:37:54.100Z,96438.13
2023-01-13T06:40:02.429Z,96437.59
2023-01-13T06:42:20.178Z,96440.97
2023-01-13T06:44:26.555Z,96440.19
2023-01-13T06:46:34.769Z,96440.97
2023-01-13T06:48:39.657Z,96446.25
2023-01-13T06:50:45.072Z,96441.25
2023-01-13T06:52:50.167Z,96440.44
2023-01-13T06:54:55.087Z,96446.50
2023-01-13T06:56:59.970Z,96454.91
2023-01-13T06:59:04.834Z,96447.00
2023-01-13T07:01:09.910Z,96455.41
2023-01-13T07:03:19.185Z,96468.84
2023-01-13T07:05:25.253Z,96456.16
2023-01-13T07:07:30.455Z,96459.84
2023-01-13T07:09:35.272Z,96467.19
2023-01-13T07:11:40.031Z,96472.72
2023-01-13T07:13:57.271Z,96463.72
2023-01-13T07:16:03.508Z,96452.41
2023-01-13T07:18:08.691Z,96467.16
2023-01-13T07:20:16.501Z,96463.19
2023-01-13T07:22:21.343Z,96464.47
2023-01-13T07:24:26.121Z,96468.69
2023-01-13T07:26:31.156Z,96458.16
2023-01-13T07:28:36.513Z,96458.13
2023-01-13T07:30:41.360Z,96457.34
2023-01-13T07:32:46.150Z,96464.69
2023-01-13T07:34:51.200Z,96466.28
2023-01-13T07:36:58.595Z,96463.63
2023-01-13T07:39:04.180Z,96469.94
2023-01-13T07:41:22.368Z,96471.50
2023-01-13T07:43:36.668Z,96467.81
2023-01-13T07:45:41.834Z,96464.88
2023-01-13T07:47:46.703Z,96474.88
2023-01-13T07:49:51.486Z,96470.41
2023-01-13T07:51:59.059Z,96464.88
2023-01-13T07:54:03.968Z,96463.00
2023-01-13T07:56:10.586Z,96452.75
2023-01-13T07:58:15.538Z,96459.81
2023-01-13T08:00:21.919Z,96460.63
2023-01-13T08:02:27.415Z,96454.56
2023-01-13T08:04:32.468Z,96445.88
2023-01-13T08:06:37.278Z,96453.50
2023-01-13T08:08:44.984Z,96455.06
2023-01-13T08:10:49.863Z,96454.56
2023-01-13T08:13:07.116Z,96461.13
2023-01-13T08:15:13.211Z,96457.72
2023-01-13T08:17:20.369Z,96450.84
2023-01-13T08:19:25.391Z,96454.00
2023-01-13T08:21:30.216Z,96460.34
2023-01-13T08:23:35.212Z,96462.72
2023-01-13T08:25:42.685Z,96458.50
2023-01-13T08:27:47.763Z,96467.16
2023-01-13T08:29:52.613Z,96463.25
2023-01-13T08:31:57.466Z,96474.03
2023-01-13T08:34:02.761Z,96467.16
2023-01-13T08:36:09.225Z,96471.38
2023-01-13T08:38:14.183Z,96473.47
2023-01-13T08:40:20.968Z,96473.72
2023-01-13T08:42:28.872Z,96474.22
2023-01-13T08:44:34.936Z,96478.16
2023-01-13T08:46:40.297Z,96474.69
2023-01-13T08:48:45.242Z,96474.41
2023-01-13T08:50:50.246Z,96485.44
2023-01-13T08:52:55.009Z,96478.53
2023-01-13T08:54:59.870Z,96477.97
2023-01-13T08:57:05.263Z,96486.41
2023-01-13T08:59:14.534Z,96488.25
2023-01-13T09:01:25.040Z,96485.63
2023-01-13T09:03:30.105Z,96491.66
2023-01-13T09:05:34.864Z,96480.34
2023-01-13T09:07:41.424Z,96487.97
2023-01-13T09:09:46.655Z,96488.25
2023-01-13T09:12:06.640Z,96487.97
2023-01-13T09:14:14.023Z,96491.38
2023-01-13T09:16:18.804Z,96488.47
2023-01-13T09:18:23.611Z,96493.47
2023-01-13T09:20:28.535Z,96502.19
2023-01-13T09:22:36.478Z,96502.97
2023-01-13T09:24:41.356Z,96497.41
2023-01-13T09:26:46.227Z,96500.56
2023-01-13T09:28:51.177Z,96506.38
2023-01-13T09:31:03.159Z,96516.66
2023-01-13T09:33:20.526Z,96507.41
2023-01-13T09:35:25.376Z,96510.81
2023-01-13T09:37:31.320Z,96505.25
2023-01-13T09:39:36.712Z,96497.59
2023-01-13T09:41:58.290Z,96509.97
2023-01-13T09:44:05.625Z,96514.97
2023-01-13T09:46:41.573Z,96513.13
2023-01-13T09:48:54.544Z,96494.66
2023-01-13T09:51:05.991Z,96506.28
2023-01-13T09:53:16.973Z,96503.16
2023-01-13T09:55:25.677Z,96500.22
2023-01-13T09:57:32.823Z,96512.34
2023-01-13T09:59:38.331Z,96497.31
2023-01-13T10:01:53.499Z,96501.78
2023-01-13T10:03:59.486Z,96488.88
2023-01-13T10:06:09.108Z,96488.59
2023-01-13T10:08:16.277Z,96493.34
2023-01-13T10:10:37.090Z,96488.06
2023-01-13T10:12:56.139Z,96482.78
2023-01-13T10:15:00.971Z,96489.63
2023-01-13T10:17:27.214Z,96496.97
2023-01-13T10:19:34.987Z,96482.72
2023-01-13T10:22:18.492Z,96477.16
2023-01-13T10:24:32.253Z,96475.03
2023-01-13T10:26:50.946Z,96480.31
2023-01-13T10:28:56.390Z,96468.97
2023-01-13T10:31:01.477Z,96468.91
2023-01-13T10:33:15.059Z,96469.13
2023-01-13T10:35:20.269Z,96466.47
2023-01-13T10:37:27.727Z,96465.59
2023-01-13T10:39:42.666Z,96458.72
2023-01-13T10:41:51.105Z,96466.84
2023-01-13T10:44:04.832Z,96457.56
2023-01-13T10:46:16.148Z,96460.94
2023-01-13T10:48:23.575Z,96456.69
2023-01-13T10:50:32.251Z,96447.91
2023-01-13T10:52:43.140Z,96439.13
2023-01-13T10:54:54.989Z,96447.78
2023-01-13T10:57:41.069Z,96447.97
2023-01-13T11:03:47.680Z,96436.28
2023-01-13T11:09:05.176Z,96437.78
2023-01-13T11:11:32.603Z,96423.72
2023-01-13T11:17:31.658Z,96414.34
2023-01-13T11:19:45.378Z,96410.44
2023-01-13T11:21:59.905Z,96402.72
2023-01-13T11:24:21.405Z,96405.56
2023-01-13T11:26:41.685Z,96403.44
2023-01-13T11:28:55.310Z,96380.94
2023-01-13T11:31:13.251Z,96387.78
2023-01-13T11:33:41.739Z,96401.94
2023-01-13T11:35:56.601Z,96402.13
2023-01-13T11:38:22.359Z,96407.69
2023-01-13T11:40:38.419Z,96393.31
2023-01-13T11:42:55.174Z,96402.53
2023-01-13T11:45:14.282Z,96395.59
2023-01-13T11:47:26.000Z,96387.69
2023-01-13T11:50:04.873Z,96394.00
2023-01-13T11:52:29.225Z,96382.69
2023-01-13T11:55:00.632Z,96390.03
2023-01-13T11:57:34.620Z,96396.69
2023-01-13T12:00:05.798Z,96385.31
2023-01-13T12:02:29.728Z,96391.50
2023-01-13T12:04:46.363Z,96403.72
2023-01-13T12:07:01.099Z,96392.31
2023-01-13T12:09:44.976Z,96396.34
2023-01-13T12:12:16.201Z,96405.63
2023-01-13T12:14:29.651Z,96416.22
2023-01-13T12:16:35.519Z,96404.06
2023-01-13T12:19:01.389Z,96400.13
2023-01-13T12:21:18.315Z,96378.50
2023-01-13T12:23:30.966Z,96403.88
2023-01-13T12:25:41.188Z,96405.69
2023-01-13T12:27:54.572Z,96410.22
2023-01-13T12:29:59.986Z,96397.56
2023-01-13T12:32:08.099Z,96408.44
2023-01-13T12:34:39.407Z,96398.34
2023-01-13T12:36:58.879Z,96408.44
2023-01-13T12:39:15.509Z,96388.00
2023-01-13T12:41:34.816Z,96400.41
2023-01-13T12:43:59.580Z,96401.72
2023-01-13T12:46:34.446Z,96393.19
2023-01-13T12:48:53.034Z,96385.28
2023-01-13T12:51:03.348Z,96387.03
2023-01-13T12:53:34.077Z,96390.97
2023-01-13T12:55:39.900Z,96402.84
2023-01-13T12:58:13.475Z,96415.28
2023-01-13T13:00:25.436Z,96420.84
2023-01-13T13:02:36.093Z,96416.34
2023-01-13T13:04:49.690Z,96451.19
2023-01-13T13:07:06.029Z,96430.03
2023-01-13T13:09:24.189Z,96436.13
2023-01-13T13:11:56.903Z,96439.53
2023-01-13T13:14:03.067Z,96443.25
2023-01-13T13:16:51.673Z,96437.38
2023-01-13T13:19:31.634Z,96435.53
2023-01-13T13:22:06.243Z,96453.00
2023-01-13T13:24:14.025Z,96450.34
2023-01-13T13:26:29.210Z,96442.41
2023-01-13T13:28:39.896Z,96443.41
2023-01-13T13:30:52.132Z,96428.56
2023-01-13T13:33:18.785Z,96449.94
2023-01-13T13:35:52.169Z,96434.25
2023-01-13T13:38:19.661Z,96432.59
2023-01-13T13:40:37.446Z,96429.88
2023-01-13T13:42:59.415Z,96433.22
2023-01-13T13:45:18.540Z,96422.75
2023-01-13T13:47:23.867Z,96445.69
2023-01-13T13:58:04.840Z,96469.72
2023-01-13T14:00:21.812Z,96488.75
2023-01-13T14:02:34.831Z,96506.38
2023-01-13T14:04:40.904Z,96549.31
2023-01-13T14:06:59.652Z,96578.41
2023-01-13T14:09:06.415Z,96593.00
2023-01-13T14:11:29.391Z,96605.03
2023-01-13T14:13:36.786Z,96607.03
2023-01-13T14:15:42.222Z,96630.91
2023-01-13T14:17:47.091Z,96635.00
2023-01-13T14:19:56.659Z,96639.34
2023-01-13T14:22:02.369Z,96651.91
2023-01-13T14:24:17.666Z,96658.88
2023-01-13T14:26:27.647Z,96653.44
2023-01-13T14:28:38.722Z,96661.69
2023-01-13T14:30:44.890Z,96661.03
2023-01-13T14:32:50.784Z,96669.00
2023-01-13T14:34:55.630Z,96656.34
2023-01-13T14:37:00.798Z,96654.84
2023-01-13T14:39:27.803Z,96675.50
2023-01-13T14:41:37.083Z,96676.66
2023-01-13T14:43:50.095Z,96685.16
2023-01-13T14:45:59.956Z,96685.75
2023-01-13T14:48:11.635Z,96682.06
2023-01-13T14:50:25.800Z,96676.34
2023-01-13T14:52:33.481Z,96677.97
2023-01-13T14:54:52.860Z,96675.34
2023-01-13T14:57:14.893Z,96691.25
2023-01-13T14:59:44.078Z,96684.94
2023-01-13T15:01:49.049Z,96682.31
2023-01-13T15:58:15.417Z,96717.16
2023-01-13T16:00:25.135Z,96727.44
2023-01-13T16:02:31.080Z,96733.53
2023-01-13T16:04:35.977Z,96744.81
2023-01-13T16:27:17.326Z,96786.16
2023-01-13T16:29:22.351Z,96784.31
2023-01-13T16:31:30.681Z,96795.13
2023-01-13T16:33:35.557Z,96800.91
2023-01-13T16:36:09.446Z,96802.97
2023-01-13T16:38:05.347Z,96813.78
2023-01-13T16:40:21.299Z,96815.63
2023-01-13T16:42:28.911Z,96815.63
2023-01-13T16:44:33.651Z,96816.91
2023-01-13T16:46:38.555Z,96815.59
2023-01-13T17:00:56.815Z,96841.59
2023-01-13T17:03:03.029Z,96842.91
2023-01-13T17:05:09.502Z,96843.69
2023-01-13T17:07:19.639Z,96845.84
2023-01-13T17:09:27.195Z,96846.88
2023-01-13T17:11:31.956Z,96845.03
2023-01-13T17:13:36.909Z,96848.47
2023-01-13T17:15:41.765Z,96852.13
2023-01-13T17:17:52.155Z,96850.28
2023-01-13T17:19:57.430Z,96855.81
2023-01-13T17:22:02.405Z,96847.88
2023-01-13T17:24:09.645Z,96852.91
2023-01-13T17:26:32.159Z,96854.75
2023-01-13T17:28:36.984Z,96855.78
2023-01-13T17:30:42.302Z,96857.88
2023-01-13T17:32:49.675Z,96862.34
2023-01-13T17:34:55.427Z,96857.34
2023-01-13T17:37:00.467Z,96869.69
2023-01-13T17:39:05.763Z,96871.78
2023-01-13T17:41:10.793Z,96873.34
2023-01-13T17:43:15.798Z,96872.53
2023-01-13T17:45:23.009Z,96867.25
2023-01-13T17:47:28.437Z,96864.09
2023-01-13T17:49:35.975Z,96862.78
2023-01-13T17:51:53.870Z,96877.00
2023-01-13T17:53:58.615Z,96874.63
2023-01-13T17:56:06.306Z,96884.13
2023-01-13T17:58:12.278Z,96888.34
2023-01-13T18:00:19.357Z,96879.63
2023-01-13T18:02:24.368Z,96893.09
2023-01-13T18:04:32.615Z,96889.38
2023-01-13T18:06:40.080Z,96886.22
2023-01-13T18:08:46.415Z,96893.59
2023-01-13T18:10:59.970Z,96907.78
2023-01-13T18:13:06.564Z,96900.66
2023-01-13T18:15:31.031Z,96902.22
2023-01-13T18:17:36.047Z,96902.44
2023-01-13T18:20:00.604Z,96903.50
2023-01-13T18:22:20.463Z,96899.84
2023-01-13T18:24:37.669Z,96914.31
2023-01-13T18:26:54.958Z,96905.63
2023-01-13T18:28:59.704Z,96903.00
2023-01-13T18:31:04.521Z,96905.38
2023-01-13T18:33:09.285Z,96905.38
2023-01-13T18:35:14.235Z,96913.81
2023-01-13T18:37:21.766Z,96912.25
2023-01-13T18:39:26.743Z,96915.69
2023-01-13T18:41:46.462Z,96909.13
2023-01-13T18:43:51.853Z,96916.53
2023-01-13T18:45:59.959Z,96918.41
2023-01-13T18:48:06.832Z,96925.25
2023-01-13T18:50:14.715Z,96925.00
2023-01-13T18:52:23.682Z,96922.94
2023-01-13T18:54:29.085Z,96925.59
2023-01-13T18:56:36.468Z,96924.78
2023-01-13T18:58:49.569Z,96947.69
2023-01-13T19:01:03.651Z,96935.03
2023-01-13T19:05:34.319Z,96935.59
2023-01-13T19:07:50.530Z,96943.22
2023-01-13T19:09:56.136Z,96938.22
2023-01-13T19:14:52.016Z,96947.72
2023-01-13T19:16:58.142Z,96950.09
2023-01-13T19:19:04.738Z,96941.41
2023-01-13T19:21:10.444Z,96934.81
2023-01-13T19:23:17.980Z,96946.38
2023-01-13T19:25:22.865Z,96946.66
2023-01-13T19:30:22.156Z,96953.50
2023-01-13T19:32:27.835Z,96956.94
2023-01-13T19:34:32.894Z,96962.47
2023-01-13T19:36:37.684Z,96959.31
2023-01-13T19:38:45.190Z,96953.00
2023-01-13T19:40:55.888Z,96956.97
2023-01-13T19:43:13.217Z,96957.22
2023-01-13T19:45:30.773Z,96960.66
2023-01-13T19:47:38.676Z,96968.81
2023-01-13T19:49:43.520Z,96973.28
2023-01-13T19:51:48.384Z,96978.81
2023-01-13T19:53:55.804Z,96986.69
2023-01-13T19:56:01.318Z,96981.44
2023-01-13T19:58:08.183Z,96988.78
2023-01-13T20:00:20.471Z,96987.75
2023-01-13T20:02:31.743Z,96986.91
2023-01-13T20:04:38.492Z,96992.19
2023-01-13T20:06:43.544Z,96995.84
2023-01-13T20:08:48.741Z,97000.34
2023-01-13T20:11:16.727Z,97008.50
2023-01-13T20:13:23.334Z,97002.44
2023-01-13T20:15:28.234Z,97014.06
2023-01-13T20:17:33.296Z,97015.59
2023-01-13T20:19:38.347Z,97009.56
2023-01-13T20:21:44.998Z,97016.16
2023-01-13T20:23:53.439Z,97018.25
2023-01-13T20:26:09.896Z,97016.16
2023-01-13T20:28:14.809Z,97015.09
2023-01-13T20:30:21.379Z,97014.53
2023-01-13T20:32:26.225Z,97028.50
2023-01-13T20:34:31.273Z,97024.03
2023-01-13T20:36:39.202Z,97021.38
2023-01-13T20:38:44.313Z,97032.69
2023-01-13T20:40:49.220Z,97035.09
2023-01-13T20:42:54.824Z,97024.81
2023-01-13T20:45:00.307Z,97029.84
2023-01-13T20:47:08.359Z,97031.41
2023-01-13T20:49:14.747Z,97030.31
2023-01-13T20:51:19.835Z,97025.06
2023-01-13T20:53:24.784Z,97046.09
2023-01-13T20:55:29.899Z,97046.38
2023-01-13T20:57:35.058Z,97047.19
2023-01-13T20:59:43.168Z,97049.81
2023-01-13T21:01:47.957Z,97054.50
2023-01-13T21:03:52.847Z,97052.97
2023-01-13T21:05:59.614Z,97052.97
2023-01-13T21:08:52.633Z,97055.34
2023-01-13T21:49:44.545Z,97090.59
2023-01-13T21:51:49.461Z,97097.47
2023-01-13T21:53:54.924Z,97097.47
2023-01-13T21:55:59.681Z,97097.72
2023-01-13T21:58:11.701Z,97097.22
2023-01-13T22:00:17.950Z,97106.69
2023-01-13T22:02:31.849Z,97106.69
2023-01-13T22:04:36.813Z,97113.00
2023-01-13T22:06:44.258Z,97113.00
2023-01-13T22:08:49.083Z,97111.66
2023-01-13T22:11:00.511Z,97113.75
2023-01-13T22:13:26.062Z,97124.22
2023-01-13T22:15:32.495Z,97121.31
2023-01-13T22:17:37.451Z,97118.09
2023-01-13T22:19:42.377Z,97121.22
2023-01-13T22:21:49.781Z,97133.84
2023-01-13T22:23:54.615Z,97140.41
2023-01-13T22:26:03.824Z,97137.50
2023-01-13T22:28:09.533Z,97138.78
2023-01-13T22:30:17.748Z,97138.00
2023-01-13T22:32:23.675Z,97130.09
2023-01-13T22:34:28.742Z,97136.16
2023-01-13T22:36:33.572Z,97142.19
2023-01-13T22:38:40.891Z,97141.66
2023-01-13T22:40:45.749Z,97139.53
2023-01-13T22:42:50.622Z,97156.03
2023-01-13T22:44:55.412Z,97140.63
2023-01-13T22:47:00.235Z,97145.97
2023-01-13T22:49:05.249Z,97152.25
2023-01-13T22:51:36.590Z,97149.63
2023-01-13T22:53:44.503Z,97150.63
2023-01-13T22:55:57.067Z,97149.53
2023-01-13T22:58:02.185Z,97150.25
2023-01-13T23:00:07.977Z,97148.13
2023-01-13T23:02:12.720Z,97159.91
2023-01-13T23:04:17.590Z,97149.91
2023-01-13T23:06:23.914Z,97152.00
2023-01-13T23:08:28.637Z,97160.13
2023-01-13T23:10:36.164Z,97168.72
2023-01-13T23:12:40.858Z,97177.09
2023-01-13T23:14:45.602Z,97175.72
2023-01-13T23:16:50.535Z,97183.84
2023-01-13T23:18:55.356Z,97178.84
2023-01-13T23:21:05.043Z,97185.41
2023-01-13T23:23:09.786Z,97200.69
2023-01-13T23:25:14.885Z,97195.66
2023-01-13T23:27:22.450Z,97192.22
2023-01-13T23:29:27.111Z,97201.16
2023-01-13T23:31:31.910Z,97191.84
2023-01-13T23:33:37.800Z,97199.44
2023-01-13T23:35:42.631Z,97194.19
2023-01-13T23:37:47.394Z,97197.59
2023-01-13T23:39:52.174Z,97200.22
2023-01-13T23:41:57.295Z,97202.13
2023-01-13T23:44:04.669Z,97199.72
2023-01-13T23:46:11.467Z,97208.19
2023-01-13T23:48:16.421Z,97205.59
2023-01-13T23:50:21.383Z,97201.47
2023-01-13T23:52:26.163Z,97203.94
2023-01-13T23:54:30.909Z,97201.59
2023-01-13T23:56:39.404Z,97209.22
2023-01-13T23:58:44.909Z,97200.00
